Time;durP1;ratioP1;P1;durP2;ratioP2;P2;SDS_P1;SDS_P2;PMS_P1;PMS_P2;Temp;Humidity;BMP_temperature;BMP_pressure;BME280_temperature;BME280_humidity;BME280_pressure;Samples;Min_cycle;Max_cycle;Signal;HPM_P1;HPM_P2
2020/12/25 00:02:12;;;;;;;5.03;2.03;;;23.30;75.60;;;;;;5098533;28;20058;-65
2020/12/25 00:04:39;;;;;;;5.82;2.08;;;23.30;75.50;;;;;;5116391;28;20026;-64
2020/12/25 00:07:07;;;;;;;6.07;1.98;;;23.30;76.00;;;;;;5116788;28;20079;-65
2020/12/25 00:09:34;;;;;;;5.85;1.83;;;23.30;75.30;;;;;;5113432;28;20032;-64
2020/12/25 00:12:02;;;;;;;6.20;2.08;;;23.30;75.40;;;;;;5116511;28;20537;-64
2020/12/25 00:14:29;;;;;;;6.78;2.20;;;23.30;75.30;;;;;;5116215;28;20027;-64
2020/12/25 00:16:59;;;;;;;5.68;2.13;;;23.30;75.30;;;;;;5116537;28;20432;-66
2020/12/25 00:19:27;;;;;;;8.10;2.53;;;23.30;75.30;;;;;;5097336;28;20059;-65
2020/12/25 00:21:55;;;;;;;10.52;2.45;;;23.30;75.00;;;;;;5116076;28;20047;-62
2020/12/25 00:24:22;;;;;;;7.53;2.63;;;23.30;75.20;;;;;;5115779;28;20020;-63
2020/12/25 00:26:50;;;;;;;6.82;2.20;;;23.30;75.20;;;;;;5097956;28;20023;-65
2020/12/25 00:29:17;;;;;;;7.88;2.08;;;23.30;75.20;;;;;;5115986;28;20028;-63
2020/12/25 00:31:45;;;;;;;7.05;2.28;;;23.40;76.00;;;;;;5115605;28;20027;-66
2020/12/25 00:34:13;;;;;;;6.43;2.30;;;23.40;75.50;;;;;;5115919;28;20089;-65
2020/12/25 00:36:43;;;;;;;5.30;2.28;;;23.40;75.40;;;;;;5115446;28;20126;-65
2020/12/25 00:39:13;;;;;;;4.90;2.20;;;23.40;75.30;;;;;;5115894;28;20027;-64
2020/12/25 00:41:51;;;;;;;8.43;2.63;;;23.40;75.10;;;;;;5115424;28;20059;-65
2020/12/25 00:44:19;;;;;;;7.25;2.15;;;23.40;75.20;;;;;;5115773;28;20016;-63
2020/12/25 00:46:47;;;;;;;7.50;2.22;;;23.40;75.10;;;;;;5115570;28;20071;-64
2020/12/25 00:49:16;;;;;;;5.53;1.90;;;23.50;75.10;;;;;;5115538;28;20373;-66
2020/12/25 00:51:47;;;;;;;9.07;2.05;;;23.50;75.50;;;;;;5114944;28;20028;-66
2020/12/25 00:54:14;;;;;;;6.47;1.90;;;23.60;75.20;;;;;;5115524;28;20027;-64
2020/12/25 00:56:42;;;;;;;6.93;2.20;;;23.60;74.80;;;;;;5115372;28;20023;-65
2020/12/25 00:59:09;;;;;;;5.93;2.65;;;23.70;74.50;;;;;;5114982;28;20031;-64
2020/12/25 01:01:37;;;;;;;5.82;1.92;;;23.70;74.70;;;;;;5114982;28;20051;-65
2020/12/25 01:04:04;;;;;;;9.38;2.20;;;23.70;74.20;;;;;;5113883;28;20539;-65
2020/12/25 01:06:32;;;;;;;7.65;2.20;;;23.70;74.20;;;;;;5114859;28;20410;-64
2020/12/25 01:08:59;;;;;;;5.68;2.08;;;23.80;74.30;;;;;;5115380;28;20027;-65
2020/12/25 01:11:27;;;;;;;8.25;2.58;;;23.80;74.20;;;;;;5114553;28;20362;-66
2020/12/25 01:13:54;;;;;;;10.02;2.13;;;23.80;74.00;;;;;;5114773;28;20019;-66
2020/12/25 01:16:21;;;;;;;9.68;2.60;;;23.80;73.80;;;;;;5114654;28;20028;-64
2020/12/25 01:18:49;;;;;;;5.20;2.30;;;23.90;73.60;;;;;;5115161;28;20101;-66
2020/12/25 01:21:17;;;;;;;8.00;2.60;;;23.80;73.80;;;;;;5114990;28;20144;-65
2020/12/25 01:23:45;;;;;;;10.27;2.63;;;23.90;73.80;;;;;;5114606;28;20020;-63
2020/12/25 01:26:12;;;;;;;6.97;2.70;;;23.80;73.90;;;;;;5114827;28;20030;-63
2020/12/25 01:28:40;;;;;;;8.98;2.17;;;23.80;74.00;;;;;;5114636;28;20032;-65
2020/12/25 01:31:07;;;;;;;6.20;2.17;;;23.80;74.10;;;;;;5096477;28;20020;-64
2020/12/25 01:33:36;;;;;;;7.63;2.70;;;23.80;74.00;;;;;;5130361;27;20140;-65
2020/12/25 01:36:04;;;;;;;6.75;2.00;;;23.80;74.20;;;;;;5114292;28;20107;-65
2020/12/25 01:38:32;;;;;;;6.95;2.40;;;23.80;74.20;;;;;;5096153;28;20367;-65
2020/12/25 01:41:00;;;;;;;7.53;2.10;;;23.80;74.20;;;;;;5114275;28;20051;-65
2020/12/25 01:43:27;;;;;;;5.38;2.10;;;23.80;74.30;;;;;;5113926;28;20386;-65
2020/12/25 01:45:54;;;;;;;6.05;2.28;;;23.70;74.40;;;;;;5114591;28;20054;-65
2020/12/25 01:48:22;;;;;;;4.13;1.90;;;23.70;74.50;;;;;;5114061;28;20031;-66
2020/12/25 01:50:51;;;;;;;5.82;1.75;;;23.70;74.50;;;;;;5114114;28;20066;-63
2020/12/25 01:53:22;;;;;;;6.10;1.85;;;23.70;74.60;;;;;;5114259;28;20111;-64
2020/12/25 01:55:50;;;;;;;6.38;2.25;;;23.70;74.60;;;;;;5114533;28;20035;-64
2020/12/25 01:58:18;;;;;;;6.15;2.00;;;23.70;74.80;;;;;;5114340;28;20098;-62
2020/12/25 02:00:48;;;;;;;5.10;2.03;;;23.70;74.80;;;;;;5114399;28;20092;-65
2020/12/25 02:03:16;;;;;;;5.97;2.20;;;23.70;74.80;;;;;;5114139;28;20435;-66
2020/12/25 02:05:47;;;;;;;8.50;2.58;;;23.60;75.00;;;;;;5113796;28;20038;-65
2020/12/25 02:08:15;;;;;;;5.40;1.97;;;23.60;75.10;;;;;;5114175;28;20031;-64
2020/12/25 02:10:43;;;;;;;6.15;2.33;;;23.60;75.20;;;;;;5114082;28;20032;-64
2020/12/25 02:13:11;;;;;;;4.28;1.50;;;23.60;75.10;;;;;;5095407;28;20027;-66
2020/12/25 02:15:38;;;;;;;4.47;2.05;;;23.60;75.20;;;;;;5113365;28;20039;-62
2020/12/25 02:18:06;;;;;;;4.88;2.08;;;23.60;75.80;;;;;;5104902;27;20088;-65
2020/12/25 02:20:33;;;;;;;8.57;1.90;;;23.70;75.30;;;;;;5111639;28;20054;-59
2020/12/25 02:23:01;;;;;;;8.30;1.83;;;23.70;75.60;;;;;;5111671;28;20047;-61
2020/12/25 02:25:28;;;;;;;6.00;1.95;;;23.70;75.00;;;;;;5110093;28;20055;-57
2020/12/25 02:27:55;;;;;;;9.10;2.05;;;23.70;75.30;;;;;;5107650;28;20534;-62
2020/12/25 02:30:23;;;;;;;5.28;2.45;;;23.70;74.70;;;;;;5112534;28;20051;-56
2020/12/25 02:32:50;;;;;;;6.70;1.98;;;23.70;74.40;;;;;;5112187;28;20733;-59
2020/12/25 02:35:19;;;;;;;4.38;1.73;;;23.80;74.70;;;;;;5109684;28;20031;-62
2020/12/25 02:37:47;;;;;;;6.68;2.33;;;23.80;74.60;;;;;;5113541;27;20028;-58
2020/12/25 02:40:14;;;;;;;6.38;2.17;;;23.80;74.70;;;;;;5112265;28;20032;-58
2020/12/25 02:42:44;;;;;;;8.15;2.35;;;23.80;74.70;;;;;;5112272;28;20024;-58
2020/12/25 02:45:12;;;;;;;3.80;1.92;;;23.90;74.50;;;;;;5110785;28;20031;-58
2020/12/25 02:47:41;;;;;;;7.38;2.47;;;23.80;74.30;;;;;;5108342;28;20028;-55
2020/12/25 02:50:08;;;;;;;5.57;1.95;;;23.90;74.20;;;;;;5111835;28;20027;-59
2020/12/25 02:52:36;;;;;;;7.45;2.22;;;23.90;74.20;;;;;;5111779;28;20020;-59
2020/12/25 02:55:04;;;;;;;7.25;2.05;;;23.90;74.30;;;;;;5111493;28;20027;-57
2020/12/25 02:57:31;;;;;;;7.05;2.10;;;24.00;74.40;;;;;;5106249;28;20284;-58
2020/12/25 02:59:58;;;;;;;6.25;2.08;;;23.90;74.20;;;;;;5111788;28;20549;-53
2020/12/25 03:02:26;;;;;;;5.95;2.05;;;24.00;74.00;;;;;;5093573;28;20077;-63
2020/12/25 03:04:53;;;;;;;6.18;1.80;;;24.00;73.80;;;;;;5111116;28;20103;-63
2020/12/25 03:07:20;;;;;;;5.93;2.60;;;24.00;73.80;;;;;;5107114;28;20027;-66
2020/12/25 03:09:48;;;;;;;6.05;1.90;;;24.00;74.10;;;;;;5110908;28;20027;-55
2020/12/25 03:12:15;;;;;;;8.13;2.38;;;24.00;74.20;;;;;;5093868;28;20043;-58
2020/12/25 03:14:42;;;;;;;8.07;2.33;;;24.00;74.10;;;;;;5111042;28;20078;-55
2020/12/25 03:17:10;;;;;;;6.40;2.45;;;24.00;74.00;;;;;;5110870;28;20663;-62
2020/12/25 03:19:37;;;;;;;6.80;1.92;;;24.00;73.70;;;;;;5112260;28;20383;-62
2020/12/25 03:22:04;;;;;;;4.97;2.10;;;24.00;73.30;;;;;;5112699;28;20027;-65
2020/12/25 03:24:31;;;;;;;4.28;1.80;;;24.10;73.80;;;;;;5112344;28;20102;-62
2020/12/25 03:26:59;;;;;;;7.07;2.38;;;24.10;73.50;;;;;;5094050;28;20038;-63
2020/12/25 03:29:26;;;;;;;5.80;1.75;;;24.10;73.40;;;;;;5112412;28;20069;-65
2020/12/25 03:31:54;;;;;;;6.43;2.00;;;24.00;73.30;;;;;;5112652;28;20043;-62
2020/12/25 03:34:21;;;;;;;8.02;2.10;;;24.10;73.20;;;;;;5112440;28;20024;-64
2020/12/25 03:36:48;;;;;;;3.13;1.48;;;24.10;73.30;;;;;;5112839;28;20047;-65
2020/12/25 03:39:16;;;;;;;8.13;2.03;;;24.10;73.40;;;;;;5094806;28;20374;-65
2020/12/25 03:41:43;;;;;;;4.57;1.73;;;24.10;73.50;;;;;;5112292;28;20034;-62
2020/12/25 03:44:10;;;;;;;4.68;1.90;;;24.10;73.60;;;;;;5111994;28;20068;-64
2020/12/25 03:46:38;;;;;;;4.18;1.67;;;24.00;73.60;;;;;;5112632;28;20027;-63
2020/12/25 03:49:07;;;;;;;7.00;2.03;;;24.00;73.50;;;;;;5112591;28;20058;-64
2020/12/25 03:51:34;;;;;;;5.85;1.73;;;24.00;73.30;;;;;;5112619;28;20024;-62
2020/12/25 03:54:02;;;;;;;5.68;2.13;;;24.00;73.30;;;;;;5094459;28;20493;-63
2020/12/25 03:56:29;;;;;;;9.63;2.50;;;24.00;73.30;;;;;;5094414;28;20027;-65
2020/12/25 03:58:57;;;;;;;7.95;2.55;;;24.00;73.20;;;;;;5112256;28;20031;-65
2020/12/25 04:01:24;;;;;;;5.78;2.10;;;24.00;73.20;;;;;;5112319;28;20032;-65
2020/12/25 04:03:52;;;;;;;5.68;1.92;;;24.00;73.30;;;;;;5112498;28;20140;-63
2020/12/25 04:06:19;;;;;;;7.30;2.30;;;23.90;73.50;;;;;;5112442;28;20027;-64
2020/12/25 04:08:46;;;;;;;6.55;2.42;;;23.90;73.60;;;;;;5112328;28;20092;-65
2020/12/25 04:11:14;;;;;;;5.05;2.33;;;23.90;73.40;;;;;;5112476;28;20132;-64
2020/12/25 04:13:41;;;;;;;6.53;2.20;;;23.90;73.60;;;;;;5112330;28;20115;-65
2020/12/25 04:16:08;;;;;;;5.30;2.05;;;23.90;73.50;;;;;;5112765;28;20035;-64
2020/12/25 04:18:36;;;;;;;7.32;2.20;;;23.90;73.60;;;;;;5112328;28;20048;-65
2020/12/25 04:21:03;;;;;;;6.55;2.15;;;23.90;73.60;;;;;;5112063;28;20074;-65
2020/12/25 04:23:30;;;;;;;6.90;2.42;;;23.90;73.70;;;;;;5112524;28;20043;-64
2020/12/25 04:25:58;;;;;;;5.75;1.98;;;23.90;73.70;;;;;;5112219;28;20043;-64
2020/12/25 04:28:25;;;;;;;7.30;2.20;;;23.90;73.50;;;;;;5118341;28;20023;-63
2020/12/25 04:30:53;;;;;;;5.18;1.88;;;23.90;73.70;;;;;;5113647;28;20079;-58
2020/12/25 04:33:23;;;;;;;5.57;2.05;;;23.90;74.00;;;;;;5111621;28;20039;-53
2020/12/25 04:35:50;;;;;;;10.68;2.33;;;23.80;74.10;;;;;;5110302;28;20088;-61
2020/12/25 04:38:18;;;;;;;5.88;1.83;;;23.90;74.10;;;;;;5111865;28;20016;-63
2020/12/25 04:40:45;;;;;;;4.88;2.00;;;23.80;74.10;;;;;;5108056;28;20127;-67
2020/12/25 04:43:14;;;;;;;7.07;1.90;;;23.80;74.20;;;;;;5114735;28;20824;-58
2020/12/25 04:45:42;;;;;;;6.43;1.95;;;23.80;74.20;;;;;;5114673;28;20038;-59
2020/12/25 04:48:10;;;;;;;6.80;1.98;;;23.90;73.90;;;;;;5114365;28;20107;-57
2020/12/25 04:50:37;;;;;;;6.25;2.17;;;23.90;74.10;;;;;;5112454;27;20024;-59
2020/12/25 04:53:05;;;;;;;4.88;2.08;;;23.90;73.90;;;;;;5114240;28;20035;-63
2020/12/25 04:55:32;;;;;;;8.10;2.17;;;23.90;74.10;;;;;;5114362;28;20119;-63
2020/12/25 04:58:00;;;;;;;6.28;2.03;;;23.90;74.10;;;;;;5113780;28;20397;-67
2020/12/25 05:00:28;;;;;;;8.20;2.42;;;23.90;74.00;;;;;;5111000;28;20042;-62
2020/12/25 05:02:55;;;;;;;9.85;2.33;;;23.90;74.10;;;;;;5109532;28;20111;-61
2020/12/25 05:05:31;;;;;;;6.72;2.20;;;23.90;74.00;;;;;;5113467;28;20035;-60
2020/12/25 05:08:00;;;;;;;6.43;1.80;;;23.90;73.90;;;;;;5095006;28;20478;-61
2020/12/25 05:10:28;;;;;;;6.32;1.88;;;23.90;73.80;;;;;;5109915;28;20047;-63
2020/12/25 05:12:59;;;;;;;6.80;1.77;;;23.90;74.00;;;;;;5090763;28;20035;-62
2020/12/25 05:15:26;;;;;;;8.10;2.10;;;23.90;74.00;;;;;;5112127;28;20092;-53
2020/12/25 05:17:58;;;;;;;4.57;1.63;;;23.90;73.90;;;;;;5112746;28;20047;-59
2020/12/25 05:20:28;;;;;;;7.85;2.67;;;23.90;73.80;;;;;;5111018;28;20706;-60
2020/12/25 05:23:10;;;;;;;8.48;2.10;;;23.90;73.70;;;;;;5109544;28;20035;-57
2020/12/25 05:25:40;;;;;;;6.80;2.17;;;23.90;74.00;;;;;;5116468;27;20011;-52
2020/12/25 05:28:16;;;;;;;8.30;2.17;;;23.90;74.10;;;;;;5113659;28;20031;-53
2020/12/25 05:30:46;;;;;;;8.80;2.22;;;23.90;74.10;;;;;;5107327;28;20032;-59
2020/12/25 05:33:15;;;;;;;5.30;2.10;;;23.90;74.10;;;;;;5112874;28;20016;-54
2020/12/25 05:35:45;;;;;;;5.00;1.88;;;23.90;74.20;;;;;;5113194;28;20044;-52
2020/12/25 05:38:13;;;;;;;11.73;2.45;;;23.90;74.10;;;;;;5113717;28;20020;-57
2020/12/25 05:40:44;;;;;;;7.07;1.80;;;23.90;74.00;;;;;;5108394;28;20046;-57
2020/12/25 05:43:15;;;;;;;8.02;2.17;;;23.90;74.00;;;;;;5093728;28;20118;-54
2020/12/25 05:45:44;;;;;;;7.60;1.98;;;23.90;74.20;;;;;;5113245;28;20028;-61
2020/12/25 05:48:12;;;;;;;7.97;1.90;;;23.90;74.10;;;;;;5113226;28;20114;-55
2020/12/25 05:50:41;;;;;;;9.50;2.13;;;23.90;74.20;;;;;;5089136;28;20043;-57
2020/12/25 05:53:09;;;;;;;5.93;2.03;;;23.90;74.10;;;;;;5110345;28;20026;-58
2020/12/25 05:55:38;;;;;;;6.65;1.92;;;23.90;74.10;;;;;;5112981;28;20477;-57
2020/12/25 05:58:06;;;;;;;6.80;2.03;;;23.90;73.90;;;;;;5112718;28;20020;-57
2020/12/25 06:00:34;;;;;;;9.60;2.00;;;23.90;74.60;;;;;;5109352;28;20359;-61
2020/12/25 06:03:01;;;;;;;7.60;1.80;;;23.80;74.40;;;;;;5109495;28;20055;-56
2020/12/25 06:05:29;;;;;;;6.30;1.60;;;23.80;74.50;;;;;;5108592;28;20034;-54
2020/12/25 06:07:59;;;;;;;7.18;1.73;;;23.80;74.30;;;;;;5112954;28;20098;-57
2020/12/25 06:10:30;;;;;;;10.35;2.38;;;23.80;74.20;;;;;;5109955;28;20416;-58
2020/12/25 06:12:58;;;;;;;4.32;1.73;;;23.80;74.20;;;;;;5108346;28;20034;-61
2020/12/25 06:15:32;;;;;;;8.90;2.13;;;23.80;74.20;;;;;;5112386;28;20027;-62
2020/12/25 06:18:40;;;;;;;5.93;1.92;;;23.80;74.40;;;;;;5112642;28;20354;-56
2020/12/25 06:21:18;;;;;;;10.30;1.70;;;23.80;74.70;;;;;;5104145;28;20126;-59
2020/12/25 06:23:47;;;;;;;8.18;2.47;;;23.80;74.50;;;;;;5107976;28;20101;-58
2020/12/25 06:26:19;;;;;;;7.30;1.85;;;23.80;74.50;;;;;;5115083;27;20031;-61
2020/12/25 06:28:49;;;;;;;7.07;1.98;;;23.80;74.50;;;;;;5112293;28;20497;-59
2020/12/25 06:31:48;;;;;;;7.25;1.70;;;23.80;74.50;;;;;;5104261;28;20031;-56
2020/12/25 06:34:15;;;;;;;9.60;1.83;;;23.80;74.70;;;;;;5096825;28;20482;-61
2020/12/25 06:36:48;;;;;;;5.72;1.90;;;23.80;75.30;;;;;;5112664;28;20393;-57
2020/12/25 06:39:17;;;;;;;7.97;1.85;;;23.70;75.30;;;;;;5112217;28;20055;-63
2020/12/25 06:41:46;;;;;;;7.72;2.08;;;23.70;75.40;;;;;;5103861;28;20092;-62
2020/12/25 06:44:20;;;;;;;4.80;1.70;;;23.70;75.90;;;;;;5093604;28;20020;-55
2020/12/25 06:46:48;;;;;;;7.95;1.98;;;23.70;75.30;;;;;;5112368;28;20054;-56
2020/12/25 06:49:17;;;;;;;10.48;1.77;;;23.70;75.50;;;;;;5112207;28;20109;-57
2020/12/25 06:51:46;;;;;;;6.15;1.88;;;23.70;75.30;;;;;;5100300;28;20094;-58
2020/12/25 06:54:23;;;;;;;8.43;1.92;;;23.70;75.20;;;;;;5107029;28;20062;-63
2020/12/25 06:56:59;;;;;;;5.63;1.95;;;23.70;75.30;;;;;;5093840;28;20027;-49
2020/12/25 06:59:26;;;;;;;5.82;1.95;;;23.70;75.40;;;;;;5108220;28;20432;-56
2020/12/25 07:01:53;;;;;;;8.45;2.55;;;23.70;75.10;;;;;;5104232;28;20034;-56
2020/12/25 07:04:32;;;;;;;8.85;1.92;;;23.70;75.00;;;;;;5110844;28;20020;-54
2020/12/25 07:07:00;;;;;;;10.27;2.67;;;23.70;75.00;;;;;;5108508;28;20032;-61
2020/12/25 07:09:38;;;;;;;8.30;2.60;;;23.70;75.00;;;;;;5111627;28;20030;-52
2020/12/25 07:12:21;;;;;;;7.50;1.98;;;23.60;73.70;;;;;;5085290;28;20062;-62
2020/12/25 07:14:49;;;;;;;7.85;2.30;;;23.60;74.30;;;;;;5110772;28;20054;-56
2020/12/25 07:17:19;;;;;;;9.82;2.15;;;23.70;74.90;;;;;;5111356;28;20031;-57
2020/12/25 07:19:47;;;;;;;5.78;1.67;;;23.60;75.00;;;;;;5110965;28;20055;-61
2020/12/25 07:22:14;;;;;;;9.18;3.00;;;23.70;74.90;;;;;;5103450;28;20524;-60
2020/12/25 07:24:43;;;;;;;13.95;3.72;;;23.70;74.90;;;;;;5110657;28;20031;-65
2020/12/25 07:27:11;;;;;;;21.23;5.40;;;23.70;74.80;;;;;;5096588;28;20063;-61
2020/12/25 07:29:44;;;;;;;22.58;5.65;;;23.70;74.60;;;;;;5111169;28;20042;-56
2020/12/25 07:32:13;;;;;;;16.30;4.90;;;23.70;74.70;;;;;;5103748;28;20455;-56
2020/12/25 07:34:41;;;;;;;24.08;5.47;;;23.70;74.60;;;;;;5111189;28;20027;-60
2020/12/25 07:37:10;;;;;;;17.48;4.07;;;23.60;74.30;;;;;;5111410;28;20035;-62
2020/12/25 07:39:37;;;;;;;12.18;3.97;;;23.70;74.40;;;;;;5111190;28;20024;-59
2020/12/25 07:42:08;;;;;;;18.27;5.57;;;23.60;74.60;;;;;;5103042;28;20115;-59
2020/12/25 07:44:36;;;;;;;14.77;4.60;;;23.60;74.80;;;;;;5111230;28;20055;-60
2020/12/25 07:47:03;;;;;;;18.25;4.53;;;23.60;74.40;;;;;;5107400;28;20031;-61
2020/12/25 07:49:31;;;;;;;16.30;4.47;;;23.70;74.50;;;;;;5110788;28;20043;-58
2020/12/25 07:52:00;;;;;;;16.00;4.63;;;23.70;74.40;;;;;;5103320;28;20024;-57
2020/12/25 07:54:28;;;;;;;16.75;5.32;;;23.70;74.20;;;;;;5110845;28;20043;-56
2020/12/25 07:56:55;;;;;;;16.67;4.57;;;23.70;74.30;;;;;;5110824;28;20020;-59
2020/12/25 07:59:23;;;;;;;17.15;4.45;;;23.70;74.30;;;;;;5110891;28;20053;-58
2020/12/25 08:01:51;;;;;;;20.60;5.18;;;23.70;74.10;;;;;;5102748;28;20023;-59
2020/12/25 08:04:18;;;;;;;17.40;4.57;;;23.70;74.00;;;;;;5110807;28;20043;-62
2020/12/25 08:06:47;;;;;;;16.63;5.07;;;23.70;74.10;;;;;;5110588;28;20020;-57
2020/12/25 08:09:17;;;;;;;14.85;4.68;;;23.70;74.10;;;;;;5111010;28;20027;-61
2020/12/25 08:11:45;;;;;;;14.65;3.92;;;23.70;73.90;;;;;;5102517;28;20119;-64
2020/12/25 08:14:16;;;;;;;19.70;4.90;;;23.70;73.90;;;;;;5112895;28;20019;-62
2020/12/25 08:16:44;;;;;;;15.68;3.70;;;23.70;74.00;;;;;;5115065;28;20019;-63
2020/12/25 08:19:12;;;;;;;11.23;3.42;;;23.70;73.80;;;;;;5114724;28;20063;-59
2020/12/25 08:21:40;;;;;;;14.25;3.88;;;23.70;73.70;;;;;;5117861;27;20028;-56
2020/12/25 08:24:09;;;;;;;11.18;3.58;;;23.60;73.60;;;;;;5114954;28;20031;-57
2020/12/25 08:26:39;;;;;;;11.23;3.65;;;23.60;73.60;;;;;;5115852;27;20394;-59
2020/12/25 08:29:07;;;;;;;10.30;3.38;;;23.60;73.70;;;;;;5115049;28;20077;-58
2020/12/25 08:31:39;;;;;;;11.93;3.92;;;23.60;73.70;;;;;;5106041;28;20051;-60
2020/12/25 08:34:13;;;;;;;15.10;4.15;;;23.60;73.80;;;;;;5114835;28;20047;-59
2020/12/25 08:36:42;;;;;;;16.38;3.95;;;23.50;73.70;;;;;;5114369;28;20099;-62
2020/12/25 08:39:09;;;;;;;10.25;3.42;;;23.50;73.70;;;;;;5114888;28;20493;-55
2020/12/25 08:41:37;;;;;;;13.18;3.92;;;23.50;73.60;;;;;;5088224;28;20039;-61
2020/12/25 08:44:14;;;;;;;11.93;3.25;;;23.50;73.50;;;;;;5096647;28;20030;-58
2020/12/25 08:46:45;;;;;;;14.13;4.10;;;23.50;73.40;;;;;;5114798;28;20038;-63
2020/12/25 08:49:12;;;;;;;12.18;2.97;;;23.40;73.40;;;;;;5114512;28;20011;-60
2020/12/25 08:51:39;;;;;;;10.02;3.45;;;23.50;73.40;;;;;;5105895;28;20034;-62
2020/12/25 08:54:07;;;;;;;8.95;3.20;;;23.40;73.40;;;;;;5114652;28;20404;-66
2020/12/25 08:56:38;;;;;;;10.55;3.33;;;23.50;73.50;;;;;;5114190;28;20035;-54
2020/12/25 08:59:07;;;;;;;13.73;3.75;;;23.40;73.40;;;;;;5114419;28;20024;-57
2020/12/25 09:01:39;;;;;;;6.70;2.95;;;23.40;73.30;;;;;;5105707;28;20122;-55
2020/12/25 09:04:13;;;;;;;10.88;3.25;;;23.40;73.40;;;;;;5114020;28;20028;-64
2020/12/25 09:06:41;;;;;;;8.38;2.92;;;23.40;73.40;;;;;;5114180;28;20119;-60
2020/12/25 09:09:08;;;;;;;12.82;4.15;;;23.40;73.40;;;;;;5113790;28;20466;-64
2020/12/25 09:11:36;;;;;;;12.05;3.40;;;23.40;73.30;;;;;;5105739;28;20141;-60
2020/12/25 09:14:04;;;;;;;10.23;3.05;;;23.40;73.20;;;;;;5114238;28;20047;-65
2020/12/25 09:16:31;;;;;;;9.05;2.97;;;23.40;73.20;;;;;;5114094;28;20047;-62
2020/12/25 09:18:59;;;;;;;9.43;2.92;;;23.40;73.10;;;;;;5113277;28;20048;-56
2020/12/25 09:21:30;;;;;;;16.05;3.08;;;23.40;73.10;;;;;;5105871;28;20162;-52
2020/12/25 09:23:57;;;;;;;9.18;2.90;;;23.40;73.00;;;;;;5112969;28;20545;-56
2020/12/25 09:26:25;;;;;;;8.98;3.20;;;23.40;72.90;;;;;;5112589;28;20485;-62
2020/12/25 09:28:52;;;;;;;8.25;2.72;;;23.40;73.60;;;;;;5113517;28;20466;-60
2020/12/25 09:31:19;;;;;;;7.22;2.38;;;23.40;72.90;;;;;;5106216;28;20028;-60
2020/12/25 09:33:47;;;;;;;10.68;3.00;;;23.40;72.80;;;;;;5112814;28;20117;-54
2020/12/25 09:36:14;;;;;;;7.70;2.65;;;23.40;72.70;;;;;;5114079;28;20102;-54
2020/12/25 09:38:45;;;;;;;12.25;3.22;;;23.40;72.60;;;;;;5113085;28;20030;-50
2020/12/25 09:41:14;;;;;;;8.23;2.72;;;23.40;72.60;;;;;;5105957;28;20043;-54
2020/12/25 09:43:42;;;;;;;6.57;2.50;;;23.30;72.50;;;;;;5112421;28;20049;-52
2020/12/25 09:46:10;;;;;;;11.52;2.70;;;23.30;72.60;;;;;;5113734;28;20036;-62
2020/12/25 09:48:38;;;;;;;8.93;2.58;;;23.30;72.60;;;;;;5108823;28;20121;-62
2020/12/25 09:51:05;;;;;;;8.65;3.38;;;23.30;72.50;;;;;;5106190;28;20722;-63
2020/12/25 09:53:33;;;;;;;8.23;3.08;;;23.30;72.40;;;;;;5112960;28;20020;-64
2020/12/25 09:56:00;;;;;;;6.85;1.95;;;23.30;72.30;;;;;;5113289;28;20029;-65
2020/12/25 09:58:27;;;;;;;9.23;3.40;;;23.30;72.30;;;;;;5112569;28;20377;-63
2020/12/25 10:00:55;;;;;;;7.68;2.60;;;23.30;72.20;;;;;;5105976;28;20045;-63
2020/12/25 10:03:24;;;;;;;8.63;2.45;;;23.30;72.10;;;;;;5093986;28;20552;-63
2020/12/25 10:05:51;;;;;;;8.25;2.10;;;23.30;72.10;;;;;;5113365;28;20024;-57
2020/12/25 10:08:19;;;;;;;7.32;2.78;;;23.30;72.20;;;;;;5113038;28;20144;-63
2020/12/25 10:10:46;;;;;;;6.85;2.28;;;23.30;72.10;;;;;;5102591;28;20027;-59
2020/12/25 10:13:14;;;;;;;7.38;2.78;;;23.30;72.10;;;;;;5111545;28;20103;-58
2020/12/25 10:15:41;;;;;;;5.72;2.17;;;23.30;72.10;;;;;;5112741;28;20024;-63
2020/12/25 10:18:18;;;;;;;7.75;2.63;;;23.30;72.00;;;;;;5112666;28;20043;-59
2020/12/25 10:20:47;;;;;;;8.30;2.90;;;23.30;72.00;;;;;;5090332;28;20043;-65
2020/12/25 10:23:15;;;;;;;6.45;2.58;;;23.30;72.00;;;;;;5111886;28;20028;-56
2020/12/25 10:25:43;;;;;;;7.53;2.35;;;23.20;71.80;;;;;;5115016;27;20114;-55
2020/12/25 10:28:11;;;;;;;8.10;2.78;;;23.20;71.80;;;;;;5112873;28;20024;-62
2020/12/25 10:30:38;;;;;;;8.10;2.72;;;23.30;71.70;;;;;;5108069;28;20061;-66
2020/12/25 10:33:05;;;;;;;5.85;1.90;;;23.20;71.70;;;;;;5109592;28;20032;-66
2020/12/25 10:35:32;;;;;;;7.88;2.45;;;23.20;71.70;;;;;;5112429;28;20023;-59
2020/12/25 10:38:00;;;;;;;6.13;2.15;;;23.20;71.70;;;;;;5112552;28;20031;-63
2020/12/25 10:40:27;;;;;;;8.95;2.75;;;23.20;71.60;;;;;;5110152;28;20039;-62
2020/12/25 10:42:54;;;;;;;9.65;2.47;;;23.20;71.70;;;;;;5107734;28;20111;-63
2020/12/25 10:45:22;;;;;;;9.30;2.50;;;23.20;71.80;;;;;;5112267;28;20035;-65
2020/12/25 10:47:49;;;;;;;9.05;3.17;;;23.20;71.90;;;;;;5112026;28;20434;-63
2020/12/25 10:50:17;;;;;;;6.47;2.55;;;23.20;71.80;;;;;;5112603;28;20379;-66
2020/12/25 10:52:44;;;;;;;9.52;2.65;;;23.20;71.90;;;;;;5105923;28;20104;-60
2020/12/25 10:55:13;;;;;;;8.05;2.42;;;23.20;71.80;;;;;;5112272;28;20023;-63
2020/12/25 10:57:40;;;;;;;6.97;2.28;;;23.20;71.90;;;;;;5111853;28;20031;-62
2020/12/25 11:00:08;;;;;;;7.95;2.25;;;23.20;71.90;;;;;;5111040;28;20027;-62
2020/12/25 11:02:35;;;;;;;7.85;2.40;;;23.10;72.00;;;;;;5103800;28;20496;-60
2020/12/25 11:05:02;;;;;;;7.88;1.85;;;23.10;72.00;;;;;;5112021;28;20059;-59
2020/12/25 11:07:30;;;;;;;5.88;1.90;;;23.10;72.00;;;;;;5111865;28;20027;-63
2020/12/25 11:09:57;;;;;;;7.68;2.03;;;23.10;71.80;;;;;;5111966;28;20077;-60
2020/12/25 11:12:24;;;;;;;6.57;2.55;;;23.10;71.70;;;;;;5102881;28;20024;-60
2020/12/25 11:14:52;;;;;;;7.50;2.60;;;23.20;71.70;;;;;;5111662;28;20404;-58
2020/12/25 11:17:19;;;;;;;6.00;2.20;;;23.20;71.70;;;;;;5111856;28;20034;-61
2020/12/25 11:19:46;;;;;;;5.20;2.67;;;23.10;71.60;;;;;;5111270;28;20054;-57
2020/12/25 11:22:14;;;;;;;6.82;2.13;;;23.10;71.60;;;;;;5103224;28;20023;-58
2020/12/25 11:24:43;;;;;;;6.15;2.08;;;23.10;71.70;;;;;;5111382;28;20386;-58
2020/12/25 11:27:11;;;;;;;9.98;2.15;;;23.10;71.60;;;;;;5115773;27;20105;-56
2020/12/25 11:29:38;;;;;;;6.03;1.77;;;23.10;71.50;;;;;;5111409;28;20028;-56
2020/12/25 11:32:06;;;;;;;6.05;1.88;;;23.10;71.60;;;;;;5104159;28;20507;-57
2020/12/25 11:34:33;;;;;;;5.22;1.95;;;23.10;71.60;;;;;;5111439;28;20024;-50
2020/12/25 11:37:00;;;;;;;6.88;2.78;;;23.10;71.50;;;;;;5111785;28;20020;-53
2020/12/25 11:39:28;;;;;;;8.95;2.47;;;23.10;71.50;;;;;;5110989;28;20023;-49
2020/12/25 11:41:55;;;;;;;6.05;1.95;;;23.10;71.50;;;;;;5103875;28;20036;-62
2020/12/25 11:44:23;;;;;;;7.32;2.70;;;23.10;71.50;;;;;;5110525;28;20470;-57
2020/12/25 11:46:50;;;;;;;6.93;2.38;;;23.10;71.50;;;;;;5111489;28;20145;-62
2020/12/25 11:49:17;;;;;;;7.53;2.38;;;23.10;71.50;;;;;;5115626;28;20016;-50
2020/12/25 11:51:45;;;;;;;6.88;1.95;;;23.10;71.50;;;;;;5110672;28;20102;-55
2020/12/25 11:54:12;;;;;;;4.43;1.63;;;23.10;71.40;;;;;;5118006;28;20035;-65
2020/12/25 11:56:40;;;;;;;5.53;1.83;;;23.10;71.50;;;;;;5099791;28;21445;-62
2020/12/25 11:59:07;;;;;;;4.05;1.52;;;23.10;71.50;;;;;;5117913;28;20039;-62
2020/12/25 12:01:37;;;;;;;2.72;1.33;;;23.10;71.50;;;;;;5110387;28;20031;-64
2020/12/25 12:04:05;;;;;;;6.57;2.22;;;23.00;71.40;;;;;;5116926;28;20030;-65
2020/12/25 12:06:32;;;;;;;5.57;1.67;;;23.10;71.50;;;;;;5117969;28;20054;-62
2020/12/25 12:08:59;;;;;;;5.40;1.38;;;23.00;71.30;;;;;;5118277;28;20047;-64
2020/12/25 12:11:27;;;;;;;5.95;2.00;;;23.00;71.40;;;;;;5110808;28;20153;-64
2020/12/25 12:13:54;;;;;;;4.95;1.50;;;23.10;71.40;;;;;;5116888;28;20121;-60
2020/12/25 12:16:24;;;;;;;5.78;2.05;;;23.10;71.40;;;;;;5118162;28;20066;-52
2020/12/25 12:18:53;;;;;;;5.30;1.90;;;23.00;71.20;;;;;;5114209;28;20071;-63
2020/12/25 12:21:21;;;;;;;5.85;1.92;;;23.00;71.20;;;;;;5107453;28;20031;-52
2020/12/25 12:23:49;;;;;;;7.50;1.65;;;23.00;71.20;;;;;;5099146;28;20088;-63
2020/12/25 12:26:16;;;;;;;4.13;1.67;;;23.10;71.20;;;;;;5121223;27;20030;-63
2020/12/25 12:28:44;;;;;;;6.07;2.17;;;23.10;71.10;;;;;;5118037;28;20016;-58
2020/12/25 12:31:11;;;;;;;6.28;1.70;;;23.10;71.10;;;;;;5110534;28;20059;-64
2020/12/25 12:33:39;;;;;;;4.90;1.70;;;23.10;70.90;;;;;;5116562;28;20051;-65
2020/12/25 12:36:08;;;;;;;5.40;2.10;;;23.10;71.00;;;;;;5099789;28;20397;-65
2020/12/25 12:38:36;;;;;;;4.18;1.50;;;23.10;71.00;;;;;;5117725;28;20024;-65
2020/12/25 12:41:03;;;;;;;6.05;1.85;;;23.10;70.90;;;;;;5110786;28;20047;-63
2020/12/25 12:43:31;;;;;;;5.90;1.90;;;23.00;70.90;;;;;;5116447;28;20499;-66
2020/12/25 12:45:58;;;;;;;5.93;1.88;;;23.00;71.10;;;;;;5117626;28;20107;-63
2020/12/25 12:48:25;;;;;;;5.07;1.85;;;23.10;71.30;;;;;;5117550;28;20088;-60
2020/12/25 12:50:53;;;;;;;6.45;2.10;;;23.10;71.30;;;;;;5111378;28;20036;-61
2020/12/25 12:53:20;;;;;;;4.28;1.35;;;23.00;71.50;;;;;;5117353;28;20107;-63